Richmond West, FL

12:45 PM EDT on March 29, 2017 (GMT -0400)
JA Richmond West | | Change Station

Elev 7 ft 25.61 °N, 80.43 °W | Updated 8 seconds ago

Partly Cloudy
Partly Cloudy
93.6 °F
Feels Like 97 °F
N
8.1
Wind Variable Wind from South
Gusts 8.1 mph

Today
High -- | Low -- °F
--% Chance of Precip.
Yesterday
High -- | Low -- °F
Precip. -- in
Pressure 30.06 in
Visibility 10.0 miles
Clouds Few 4200 ft
Heat Index 97 °F
Dew Point 67 °F
Humidity 42%
Rainfall 0.00 in
Snow Depth Not available.
7:15 AM 7:37 PM
Waxing Crescent, 3% visible
METAR KTMB 291553Z 14003KT 10SM FEW042 28/16 A3007 RMK AO2 SLP180 T02830161
Pressure 30.06 in
Visibility 10.0 miles
Clouds Few 4200 ft
Heat Index 97 °F
Dew Point 67 °F
Humidity 42%
Rainfall 0.00 in
Snow Depth Not available.
7:15 AM 7:37 PM
Waxing Crescent, 3% visible
METAR KTMB 291553Z 14003KT 10SM FEW042 28/16 A3007 RMK AO2 SLP180 T02830161

Get Severe Weather Alerts

Thanks for signing up!

Be on the lookout for a verification email in your inbox.

You'll start receiving the daily forecast at 8 AM.

×

10-Day Weather Forecast

Almanac

Astronomy

Mar. 29, 2017 Rise Set
Actual Time
Civil Twilight
Nautical Twilight
Astronomical Twilight
Moon
Length of Visible Light
Length of Day
Tomorrow will be .
, % of the Moon is Illuminated

Today's Extremes

State Highs State Lows

Community

WunderPhotos

Upload Photos

1,962,540 photos uploaded!

WunderBlog® & News

Nearby

Air Quality

  Air Quality AQ Index Pollutant
Not available.

Snow Depth

Station Depth Elevation

Earthquake Activity

City Distance Mag. Time & Date
Minimum magnitude displayed is 2.5.

Earthquake Activity

City Distance Mag. Time & Date
Minimum magnitude displayed is 2.5.

Coastal Water Temperatures

Place Temperature

Stations

Nearby Weather Stations

Station Location Temp. Windchill Dew Point Humidity Wind Precip. Elev Updated Type
                   

Watches & Warnings

There are currently no watches in effect.